Weather reports worldwide

Advertisment
Cervera de Pisuerga, Spain (8058): temperature & dewpoint: 19.08.2019 08:00:00 - 25.08.2019 08:00:00 (CEST)Cervera de Pisuerga, Spain (8058): wind speed & gusts: 19.08.2019 08:00:00 - 25.08.2019 08:00:00 (CEST)Cervera de Pisuerga, Spain (8058): wind direction: 19.08.2019 08:00:00 - 25.08.2019 08:00:00 (CEST)Cervera de Pisuerga, Spain (8058): visibility: 19.08.2019 08:00:00 - 25.08.2019 08:00:00 (CEST)Cervera de Pisuerga, Spain (8058): sunshine duration: 19.08.2019 08:00:00 - 25.08.2019 08:00:00 (CEST)Cervera de Pisuerga, Spain (8058): precipitation: 19.08.2019 08:00:00 - 25.08.2019 08:00:00 (CEST)
Date & Time tt [°C] td [°C] ff [km/h] ff [kn] fx [km/h] fx [kn] dd vv [km] sd [min] rr [mm]
25.08.2019 08:00:00 - - - - - - - - - -
25.08.2019 07:00:00 15,9 7,9 10 5 23 12 W 20 0 0,0
25.08.2019 06:00:00 15,7 8,9 11 6 21 11 WNW 20 0 0,0
25.08.2019 05:00:00 15,9 9,1 14 7 22 12 WNW 20 0 0,0
25.08.2019 04:00:00 14,8 8,7 6 4 21 11 WNW 20 0 0,0
25.08.2019 03:00:00 15,2 9,3 12 7 19 10 WNW 20 0 0,0
25.08.2019 02:00:00 15,5 9,6 13 7 22 12 WNW 20 0 -
25.08.2019 01:00:00 15,9 10,0 14 7 21 11 WNW 20 0 0,0
25.08.2019 00:00:00 16,3 10,4 13 7 24 13 WNW 20 0 0,0
24.08.2019 23:00:00 17,8 11,1 13 7 24 13 N 19 0 0,0
24.08.2019 22:00:00 19,3 11,6 11 6 21 12 N 20 0 0,0
24.08.2019 21:00:00 21,8 12,4 11 6 28 15 N 20 0 0,0
24.08.2019 20:00:00 27,3 8,2 8 5 31 17 SW 20 33 -
24.08.2019 19:00:00 30,2 6,8 9 5 29 16 SW 20 60 0,0
24.08.2019 18:00:00 31,2 7,0 6 3 26 14 WSW 20 60 0,0
24.08.2019 17:00:00 32,0 7,6 6 4 32 17 SW 20 52 0,0
24.08.2019 16:00:00 31,3 7,7 10 5 32 17 S 20 47 0,0
24.08.2019 15:00:00 31,7 8,7 12 7 34 18 SSW 19 53 0,0
24.08.2019 14:00:00 30,5 8,3 8 4 28 15 SE 20 60 -
24.08.2019 13:00:00 28,9 9,1 8 5 21 12 SE 20 60 0,0
24.08.2019 12:00:00 25,2 9,1 5 3 21 11 ESE 20 60 0,0
24.08.2019 11:00:00 21,0 9,6 4 2 18 10 ENE 20 13 0,0
24.08.2019 10:00:00 18,5 7,0 10 5 22 12 W 20 0 0,0
24.08.2019 09:00:00 16,0 5,6 8 4 30 16 NNW 20 2 0,0
24.08.2019 08:00:00 14,5 3,9 10 5 23 12 WNW 20 0 -
24.08.2019 07:00:00 15,1 3,9 10 5 20 11 WNW 20 0 0,0
24.08.2019 06:00:00 15,4 4,5 11 6 20 11 WNW 20 0 0,0
24.08.2019 05:00:00 14,8 5,6 11 6 28 15 WNW 20 0 0,0
24.08.2019 04:00:00 15,6 5,5 13 7 21 12 WNW 20 0 0,0
24.08.2019 03:00:00 15,8 6,0 14 8 21 12 WNW 20 0 0,0
24.08.2019 02:00:00 16,2 6,9 13 7 21 11 WNW 20 0 -
24.08.2019 01:00:00 16,4 7,1 11 6 22 12 NW 20 0 0,0
24.08.2019 00:00:00 17,2 7,6 11 6 23 13 W 20 0 0,0
23.08.2019 23:00:00 19,3 7,4 15 8 24 13 WNW 20 0 0,0
23.08.2019 22:00:00 19,9 7,3 11 6 24 13 NW 20 0 0,0
23.08.2019 21:00:00 21,5 7,7 7 4 23 13 NNW 20 21 0,0
23.08.2019 20:00:00 24,3 7,9 8 4 26 14 N 20 60 -
23.08.2019 19:00:00 26,8 8,3 10 5 26 14 N 20 60 0,0
23.08.2019 18:00:00 30,5 1,9 4 2 16 9 E 20 60 0,0
23.08.2019 17:00:00 30,3 3,4 4 2 19 11 NE 19 60 0,0
23.08.2019 16:00:00 30,7 2,0 6 3 18 10 ESE 20 60 0,0
23.08.2019 15:00:00 30,3 4,1 8 4 29 16 SE 20 60 0,0
23.08.2019 14:00:00 28,6 4,2 5 3 23 13 E 20 60 -
23.08.2019 13:00:00 26,9 4,7 11 6 23 12 SE 20 60 0,0
23.08.2019 12:00:00 24,2 7,8 13 7 23 13 SSE 20 60 0,0
23.08.2019 11:00:00 19,1 9,0 9 5 17 9 W 20 15 0,0
23.08.2019 10:00:00 15,8 3,9 4 2 24 13 NW 20 0 0,0
23.08.2019 09:00:00 12,6 1,6 11 6 27 15 WNW 20 1 0,0
23.08.2019 08:00:00 11,5 1,2 10 6 27 14 NW 20 0 -
23.08.2019 07:00:00 12,1 1,5 12 6 19 11 NW 20 0 0,0
23.08.2019 06:00:00 11,5 2,3 11 6 24 13 WNW 20 0 0,0
23.08.2019 05:00:00 11,9 2,7 6 4 27 15 NW 20 0 0,0
23.08.2019 04:00:00 11,4 4,2 9 5 25 14 WNW 20 0 0,0
23.08.2019 03:00:00 12,2 4,9 6 3 19 11 WNW 20 0 0,0
23.08.2019 02:00:00 12,1 4,8 6 3 18 10 NNW 20 0 -
23.08.2019 01:00:00 13,6 6,0 11 6 19 10 NW 20 0 0,0
23.08.2019 00:00:00 14,0 8,0 8 4 21 11 NW 20 0 0,0
22.08.2019 23:00:00 15,5 8,0 11 6 21 11 WNW 20 0 0,0
22.08.2019 22:00:00 16,8 7,7 16 8 20 11 W 20 0 0,0
22.08.2019 21:00:00 20,0 6,7 12 7 20 11 S 20 21 0,0
22.08.2019 20:00:00 24,2 7,4 9 5 22 12 E 20 60 -
22.08.2019 19:00:00 25,9 7,0 9 5 18 10 ESE 20 60 0,0
22.08.2019 18:00:00 26,5 3,1 10 5 26 14 ESE 20 60 0,0
22.08.2019 17:00:00 26,9 1,4 12 7 24 13 SE 20 60 0,0
22.08.2019 16:00:00 26,7 4,5 11 6 24 13 SE 20 60 0,0
22.08.2019 15:00:00 25,6 5,8 11 6 23 12 SE 20 60 0,0
22.08.2019 14:00:00 24,6 4,4 10 6 22 12 SE 20 60 -
22.08.2019 13:00:00 22,6 5,5 10 5 19 10 ESE 20 60 0,0
22.08.2019 12:00:00 19,2 5,7 6 3 15 8 SSE 20 60 0,0
22.08.2019 11:00:00 15,9 5,5 4 2 9 5 SSE 20 11 0,0
22.08.2019 10:00:00 12,6 6,2 3 2 19 10 WNW 20 0 0,0
22.08.2019 09:00:00 10,1 4,1 6 4 25 14 NW 20 1 0,0
22.08.2019 08:00:00 8,3 4,3 13 7 24 13 WNW 20 0 -
22.08.2019 07:00:00 8,3 5,1 14 8 24 13 WNW 20 0 0,0
22.08.2019 06:00:00 7,8 5,3 14 8 26 14 WNW 20 0 0,0
22.08.2019 05:00:00 8,1 5,2 10 6 19 11 WNW 20 0 0,0
22.08.2019 04:00:00 9,4 6,1 7 4 22 12 NW 20 0 0,0
22.08.2019 03:00:00 9,0 6,6 5 3 21 11 NW 17 0 0,0
22.08.2019 02:00:00 10,6 7,3 7 4 19 11 NW 20 0 -
22.08.2019 01:00:00 11,3 7,8 3 2 20 11 W 20 0 0,0
22.08.2019 00:00:00 11,7 8,0 6 4 15 8 NNW 20 0 0,0
21.08.2019 23:00:00 13,0 7,2 5 3 21 11 SE 20 0 0,0
21.08.2019 22:00:00 14,4 7,5 9 5 21 12 NW 20 0 0,0
21.08.2019 21:00:00 16,4 10,3 12 6 26 14 NNW 20 19 0,0
21.08.2019 20:00:00 19,8 11,6 11 6 24 13 NNE 20 48 -
21.08.2019 19:00:00 22,1 12,6 10 6 24 13 NNE 20 60 0,0
21.08.2019 18:00:00 24,9 12,8 9 5 19 10 NNE 20 60 0,0
21.08.2019 17:00:00 26,0 11,0 12 7 27 14 ESE 20 60 0,0
21.08.2019 16:00:00 26,2 11,9 5 3 24 13 E 17 60 0,0
21.08.2019 15:00:00 25,1 12,0 8 5 22 12 ESE 20 60 0,0
21.08.2019 14:00:00 23,9 11,3 10 5 21 11 ESE 19 60 -
21.08.2019 13:00:00 22,2 12,2 11 6 21 11 SE 20 60 0,0
21.08.2019 12:00:00 18,4 11,2 9 5 15 8 SSE 20 60 0,0
21.08.2019 11:00:00 14,5 9,9 3 2 18 10 NE 20 16 0,0
21.08.2019 10:00:00 11,6 8,6 1 1 19 11 NNE 20 0 0,0
21.08.2019 09:00:00 9,4 7,5 4 2 22 12 NNW 20 0 0,0
21.08.2019 08:00:00 7,7 6,0 14 8 22 12 WNW 20 0 -
21.08.2019 07:00:00 7,1 5,4 14 7 21 12 W 20 0 0,0
21.08.2019 06:00:00 8,4 6,4 9 5 22 12 W 20 0 0,0
21.08.2019 05:00:00 8,4 6,4 7 4 22 12 WNW 20 0 0,0
21.08.2019 04:00:00 7,9 6,2 13 7 23 12 WNW 20 0 0,0
21.08.2019 03:00:00 7,5 6,1 12 7 21 11 WNW 20 0 0,0
21.08.2019 02:00:00 7,5 6,0 8 4 18 10 SSW 16 0 -
21.08.2019 01:00:00 8,1 6,1 2 1 16 9 NW 19 0 0,0
21.08.2019 00:00:00 9,4 6,8 5 3 15 8 NNW 20 0 0,0
20.08.2019 23:00:00 10,5 7,0 7 4 22 12 NNW 19 0 0,0
20.08.2019 22:00:00 10,8 7,1 5 3 27 14 NNE 20 0 0,0
20.08.2019 21:00:00 12,6 6,6 15 8 29 16 NNW 20 25 0,0
20.08.2019 20:00:00 15,5 7,5 10 5 25 14 NNW 20 60 -
20.08.2019 19:00:00 17,7 8,0 11 6 27 15 NNW 20 59 0,0
20.08.2019 18:00:00 17,2 8,4 10 6 24 13 NNW 20 53 0,0
20.08.2019 17:00:00 18,3 8,8 15 8 27 15 NNW 20 60 0,0
20.08.2019 16:00:00 17,5 8,1 13 7 27 15 NNW 20 53 0,0
20.08.2019 15:00:00 17,9 9,0 11 6 26 14 NNW 20 25 0,0
20.08.2019 14:00:00 15,7 8,2 11 6 32 17 NNW 20 26 -
20.08.2019 13:00:00 16,0 8,7 11 6 29 16 NNW 20 52 0,0
20.08.2019 12:00:00 15,8 9,7 10 5 29 15 NNW 20 60 0,0
20.08.2019 11:00:00 13,7 8,3 10 6 29 15 NNW 19 20 0,0
20.08.2019 10:00:00 12,2 7,7 14 8 36 20 NNW 20 0 0,0
20.08.2019 09:00:00 10,8 7,5 10 5 32 17 NNW 20 0 0,0
20.08.2019 08:00:00 9,8 7,6 13 7 31 17 NW 20 0 -
20.08.2019 07:00:00 9,7 7,5 8 4 28 15 WNW 20 0 0,0
20.08.2019 06:00:00 10,0 7,8 6 4 26 14 NW 20 0 0,0
20.08.2019 05:00:00 9,7 7,6 7 4 24 13 WNW 20 0 0,0
20.08.2019 04:00:00 10,3 7,9 6 3 20 11 NNW 20 0 0,0
20.08.2019 03:00:00 10,8 8,2 6 3 24 13 WNW 20 0 0,0
20.08.2019 02:00:00 10,8 8,2 6 3 24 13 NW 20 0 -
20.08.2019 01:00:00 10,9 8,1 10 5 29 16 NNW 20 0 0,0
20.08.2019 00:00:00 10,6 8,0 9 5 27 15 NW 20 0 0,0
19.08.2019 23:00:00 10,7 7,9 6 4 23 12 NW 20 0 0,0
19.08.2019 22:00:00 11,0 8,2 7 4 25 14 NNW 20 0 0,0
19.08.2019 21:00:00 11,5 8,0 10 5 30 16 NNW 20 0 0,0
19.08.2019 20:00:00 13,0 8,5 12 7 29 15 NNW 20 7 -
19.08.2019 19:00:00 13,8 9,5 15 8 30 16 NNW 20 46 0,0
19.08.2019 18:00:00 14,9 9,3 13 7 29 16 NNW 20 51 0,0
19.08.2019 17:00:00 16,5 9,9 15 8 29 16 NNW 20 53 0,0
19.08.2019 16:00:00 17,8 9,4 11 6 24 13 NW 20 36 0,0
19.08.2019 15:00:00 17,1 9,5 11 6 26 14 N 20 18 0,0
19.08.2019 14:00:00 18,0 10,1 10 5 21 11 N 20 40 -
19.08.2019 13:00:00 15,9 9,1 10 6 21 12 NNW 20 43 0,0
19.08.2019 12:00:00 16,6 9,3 6 3 22 12 N 20 56 0,0
19.08.2019 11:00:00 13,9 8,7 11 6 26 14 NNW 20 24 0,0
19.08.2019 10:00:00 12,4 8,7 9 5 23 12 N 20 0 0,0
19.08.2019 09:00:00 11,0 8,1 5 3 21 11 N 20 0 0,0
19.08.2019 08:00:00 10,1 7,5 6 3 22 12 NNW 20 0 -

tt = temperature
td = dewpoint
ff = wind speed
fx = gusts
dd = wind direction
vv = visibility
sd = sunshine duration
rr = precipitation

Next stations